Time;durP1;ratioP1;P1;durP2;ratioP2;P2;SDS_P1;SDS_P2;PMS_P1;PMS_P2;Temp;Humidity;BMP_temperature;BMP_pressure;BME280_temperature;BME280_humidity;BME280_pressure;Samples;Min_cycle;Max_cycle;Signal;HPM_P1;HPM_P2
2023/05/11 00:01:07;;;;;;;32.65;5.97;;;16.60;91.70;;;;;;4988130;28;20047;-59
2023/05/11 00:03:33;;;;;;;37.95;5.90;;;16.60;91.90;;;;;;4986591;28;20105;-59
2023/05/11 00:05:59;;;;;;;28.02;5.72;;;16.60;91.60;;;;;;4987380;28;20023;-60
2023/05/11 00:08:25;;;;;;;29.55;5.57;;;16.60;91.60;;;;;;4986652;28;20027;-59
2023/05/11 00:10:50;;;;;;;34.75;6.28;;;16.50;91.60;;;;;;4987041;28;20039;-59
2023/05/11 00:13:16;;;;;;;28.83;5.75;;;16.50;91.50;;;;;;4986830;28;20031;-59
2023/05/11 00:15:41;;;;;;;23.52;5.13;;;16.50;91.50;;;;;;4986179;28;20542;-59
2023/05/11 00:18:07;;;;;;;33.30;5.47;;;16.50;91.50;;;;;;4986068;28;20031;-60
2023/05/11 00:20:32;;;;;;;26.05;4.68;;;16.50;91.50;;;;;;4987143;28;20062;-59
2023/05/11 00:22:58;;;;;;;28.13;5.22;;;16.40;91.50;;;;;;4986369;28;20031;-58
2023/05/11 00:25:23;;;;;;;24.60;5.25;;;16.40;91.50;;;;;;4986175;28;20086;-59
2023/05/11 00:27:49;;;;;;;22.15;4.80;;;16.40;91.50;;;;;;4986431;28;20400;-59
2023/05/11 00:30:15;;;;;;;18.40;4.03;;;16.40;91.50;;;;;;4987767;28;20027;-58
2023/05/11 00:32:44;;;;;;;25.73;4.38;;;16.40;91.40;;;;;;4986225;28;20085;-58
2023/05/11 00:35:10;;;;;;;24.75;4.28;;;16.40;91.50;;;;;;4987200;28;20030;-59
2023/05/11 00:37:36;;;;;;;27.52;4.35;;;16.40;91.50;;;;;;4986341;28;20030;-59
2023/05/11 00:40:02;;;;;;;20.45;4.35;;;16.40;91.50;;;;;;4984939;28;20042;-60
2023/05/11 00:42:28;;;;;;;24.73;4.57;;;16.30;91.40;;;;;;5018928;28;20031;-59
2023/05/11 00:44:53;;;;;;;20.77;4.15;;;16.30;91.70;;;;;;5018250;28;20078;-59
2023/05/11 00:47:19;;;;;;;23.40;4.47;;;16.30;91.50;;;;;;4985829;28;20121;-59
2023/05/11 00:49:45;;;;;;;17.63;3.85;;;16.30;91.50;;;;;;4986445;28;20050;-60
2023/05/11 00:52:10;;;;;;;25.15;3.90;;;16.30;91.40;;;;;;4985579;28;20727;-59
2023/05/11 00:54:36;;;;;;;19.67;3.90;;;16.30;91.40;;;;;;4986348;28;20049;-59
2023/05/11 00:57:02;;;;;;;18.95;4.00;;;16.30;91.40;;;;;;4985928;28;20027;-59
2023/05/11 00:59:28;;;;;;;12.68;3.33;;;16.30;91.40;;;;;;4987423;28;20067;-59
2023/05/11 01:01:54;;;;;;;18.42;3.78;;;16.20;91.30;;;;;;4985216;28;20043;-59
2023/05/11 01:04:20;;;;;;;14.70;3.10;;;16.20;91.30;;;;;;4985732;28;20090;-59
2023/05/11 01:07:14;;;;;;;22.70;4.32;;;16.20;91.30;;;;;;4985514;28;20026;-59
2023/05/11 01:09:55;;;;;;;15.20;3.53;;;16.20;91.30;;;;;;4984914;28;20448;-59
2023/05/11 01:12:45;;;;;;;23.17;3.45;;;16.20;91.30;;;;;;4983513;28;20026;-59
2023/05/11 01:15:40;;;;;;;16.23;3.30;;;16.20;91.30;;;;;;4985950;28;20038;-59
2023/05/11 01:18:13;;;;;;;17.00;3.55;;;16.10;91.30;;;;;;4971552;28;20146;-59
2023/05/11 01:20:38;;;;;;;17.02;3.47;;;16.10;91.30;;;;;;4967277;28;20091;-59
2023/05/11 01:23:07;;;;;;;11.73;3.15;;;16.10;91.30;;;;;;4982710;28;20042;-59
2023/05/11 01:25:51;;;;;;;13.73;2.95;;;16.10;91.40;;;;;;4987243;28;20440;-59
2023/05/11 01:28:36;;;;;;;15.13;3.20;;;16.10;91.40;;;;;;4987430;28;20078;-59
2023/05/11 01:31:11;;;;;;;9.33;2.70;;;16.10;91.40;;;;;;4969468;28;20030;-60
2023/05/11 01:33:42;;;;;;;11.07;2.92;;;16.10;91.40;;;;;;4985666;28;20041;-60
2023/05/11 01:36:09;;;;;;;19.15;3.30;;;16.00;91.40;;;;;;4985847;28;20091;-59
2023/05/11 01:38:36;;;;;;;13.85;3.22;;;16.00;91.40;;;;;;4985414;28;20031;-59
2023/05/11 01:41:17;;;;;;;12.93;2.90;;;16.00;91.40;;;;;;4985445;28;20062;-59
2023/05/11 01:43:44;;;;;;;9.73;2.60;;;16.00;91.30;;;;;;4971305;28;20039;-59
2023/05/11 01:46:09;;;;;;;10.70;3.00;;;16.00;91.40;;;;;;4969319;28;20027;-59
2023/05/11 01:48:38;;;;;;;11.32;2.40;;;16.00;91.40;;;;;;4969138;28;20038;-59
2023/05/11 01:51:03;;;;;;;12.95;2.80;;;16.00;91.40;;;;;;4969277;28;20468;-59
2023/05/11 01:53:31;;;;;;;13.05;3.25;;;16.00;91.40;;;;;;4984728;28;20118;-59
2023/05/11 01:55:57;;;;;;;10.70;3.50;;;16.00;91.40;;;;;;5000459;28;20038;-59
2023/05/11 01:58:22;;;;;;;9.52;3.15;;;16.00;91.40;;;;;;4984520;28;20043;-59
2023/05/11 02:00:48;;;;;;;9.00;2.70;;;15.90;91.30;;;;;;4984554;28;20085;-59
2023/05/11 02:03:13;;;;;;;13.82;3.15;;;15.90;91.40;;;;;;4984481;28;20110;-59
2023/05/11 02:05:39;;;;;;;12.90;3.38;;;16.00;91.40;;;;;;4983732;28;20530;-59
2023/05/11 02:08:04;;;;;;;14.05;3.20;;;15.90;91.40;;;;;;4984429;28;20030;-59
2023/05/11 02:10:30;;;;;;;12.20;3.08;;;15.90;91.30;;;;;;4984902;28;20035;-60
2023/05/11 02:12:56;;;;;;;6.85;3.08;;;15.90;91.30;;;;;;4984458;28;20038;-59
2023/05/11 02:15:21;;;;;;;10.85;2.70;;;15.90;91.30;;;;;;4983616;28;20502;-59
2023/05/11 02:17:47;;;;;;;12.23;3.03;;;15.90;91.40;;;;;;4984423;28;20026;-59
2023/05/11 02:20:12;;;;;;;9.63;3.15;;;15.90;91.40;;;;;;4984492;28;20069;-59
2023/05/11 02:22:38;;;;;;;10.57;2.83;;;15.90;91.40;;;;;;4983972;28;20023;-59
2023/05/11 02:25:04;;;;;;;12.18;3.03;;;15.90;91.50;;;;;;4984278;28;20070;-60
2023/05/11 02:27:31;;;;;;;8.38;2.90;;;15.90;91.50;;;;;;4983732;28;20086;-59
2023/05/11 02:29:57;;;;;;;11.63;3.33;;;15.90;91.50;;;;;;4984453;28;20046;-59
2023/05/11 02:32:22;;;;;;;11.88;3.40;;;15.90;91.50;;;;;;4984237;28;20047;-59
2023/05/11 02:35:19;;;;;;;11.45;3.53;;;15.90;91.50;;;;;;5000146;28;20035;-59
2023/05/11 02:37:45;;;;;;;14.20;3.50;;;15.90;91.50;;;;;;4983298;28;20126;-59
2023/05/11 02:40:15;;;;;;;8.15;2.90;;;15.90;91.50;;;;;;4984637;28;20444;-59
2023/05/11 02:42:41;;;;;;;9.88;3.22;;;15.90;91.50;;;;;;4983773;28;20054;-59
2023/05/11 02:45:07;;;;;;;9.85;3.67;;;15.90;91.60;;;;;;4984663;28;20448;-59
2023/05/11 02:47:46;;;;;;;8.73;3.47;;;15.90;91.60;;;;;;4984130;28;20027;-59
2023/05/11 02:50:11;;;;;;;6.50;2.90;;;15.90;91.60;;;;;;5000903;28;20041;-59
2023/05/11 02:52:41;;;;;;;10.05;3.15;;;15.90;91.60;;;;;;4983625;28;20098;-59
2023/05/11 02:55:07;;;;;;;10.05;3.28;;;15.80;91.60;;;;;;4983646;28;20027;-59
2023/05/11 02:57:32;;;;;;;10.43;3.00;;;15.90;91.60;;;;;;4983926;28;20035;-59
2023/05/11 02:59:58;;;;;;;9.88;3.28;;;15.90;91.60;;;;;;4984085;28;20050;-59
2023/05/11 03:02:23;;;;;;;5.90;2.63;;;15.80;91.60;;;;;;4983135;28;20050;-59
2023/05/11 03:04:49;;;;;;;14.52;2.92;;;15.80;91.60;;;;;;4984396;28;20027;-59
2023/05/11 03:07:15;;;;;;;4.75;2.72;;;15.80;91.60;;;;;;4984916;28;20051;-59
2023/05/11 03:09:40;;;;;;;7.95;2.90;;;15.80;91.60;;;;;;4983160;28;20061;-59
2023/05/11 03:12:06;;;;;;;7.47;3.20;;;15.80;91.60;;;;;;4982701;28;20115;-59
2023/05/11 03:14:35;;;;;;;6.30;2.65;;;15.80;91.60;;;;;;4999721;28;20035;-59
2023/05/11 03:17:01;;;;;;;7.97;2.42;;;15.80;91.70;;;;;;4983774;28;20100;-59
2023/05/11 03:19:27;;;;;;;7.13;2.60;;;15.80;91.60;;;;;;4983538;28;20082;-59
2023/05/11 03:21:53;;;;;;;8.80;2.28;;;15.80;91.60;;;;;;4999138;28;20065;-60
2023/05/11 03:24:18;;;;;;;5.45;2.50;;;15.80;91.60;;;;;;4984044;28;20054;-59
2023/05/11 03:26:44;;;;;;;6.35;2.40;;;15.70;91.60;;;;;;4964367;28;20023;-59
2023/05/11 03:29:09;;;;;;;6.30;2.70;;;15.80;91.60;;;;;;4968376;28;20113;-59
2023/05/11 03:31:35;;;;;;;9.68;3.28;;;15.70;91.90;;;;;;4970755;28;20031;-59
2023/05/11 03:34:00;;;;;;;7.80;3.42;;;15.80;91.70;;;;;;4987742;28;20038;-59
2023/05/11 03:36:26;;;;;;;9.27;3.80;;;15.80;91.60;;;;;;4987908;28;20031;-59
2023/05/11 03:38:52;;;;;;;6.88;3.72;;;15.70;91.60;;;;;;5002646;28;20098;-59
2023/05/11 03:41:18;;;;;;;8.20;4.05;;;15.70;91.60;;;;;;4986711;28;20027;-59
2023/05/11 03:43:44;;;;;;;22.35;5.68;;;15.70;91.60;;;;;;4987155;28;20162;-59
2023/05/11 03:46:11;;;;;;;22.85;5.28;;;15.70;91.60;;;;;;4987286;28;20057;-59
2023/05/11 03:48:37;;;;;;;24.50;6.03;;;15.70;91.60;;;;;;4986795;28;20046;-59
2023/05/11 03:51:03;;;;;;;38.28;6.13;;;15.70;91.60;;;;;;4987306;28;20049;-59
2023/05/11 03:53:29;;;;;;;17.17;5.00;;;15.70;91.60;;;;;;4986979;28;20054;-59
2023/05/11 03:55:54;;;;;;;23.65;4.80;;;15.70;91.50;;;;;;4987546;28;20042;-59
2023/05/11 03:58:20;;;;;;;19.73;5.25;;;15.70;91.50;;;;;;4986280;28;20026;-59
2023/05/11 04:00:46;;;;;;;21.20;5.35;;;15.70;91.50;;;;;;4986085;28;21005;-59
2023/05/11 04:03:12;;;;;;;30.63;5.72;;;15.70;91.50;;;;;;4986837;28;20079;-59
2023/05/11 04:05:37;;;;;;;24.88;5.70;;;15.70;91.50;;;;;;4986338;28;20054;-59
2023/05/11 04:08:03;;;;;;;33.42;5.60;;;15.70;91.50;;;;;;4987863;28;20027;-59
2023/05/11 04:10:29;;;;;;;26.13;5.55;;;15.70;91.60;;;;;;4967344;28;20031;-59
2023/05/11 04:12:54;;;;;;;18.33;4.70;;;15.60;91.50;;;;;;4971681;28;20027;-59
2023/05/11 04:15:20;;;;;;;15.68;4.20;;;15.60;91.50;;;;;;4970256;28;20084;-60
2023/05/11 04:17:46;;;;;;;14.88;4.75;;;15.60;91.50;;;;;;4988207;28;20091;-59
2023/05/11 04:20:11;;;;;;;18.65;5.53;;;15.60;91.40;;;;;;4986705;28;20042;-59
2023/05/11 04:22:37;;;;;;;17.83;4.32;;;15.60;91.40;;;;;;5003120;28;20042;-59
2023/05/11 04:25:03;;;;;;;18.55;4.75;;;15.60;91.40;;;;;;5001666;28;20045;-57
2023/05/11 04:27:32;;;;;;;22.02;4.15;;;15.60;91.40;;;;;;4988056;28;20349;-59
2023/05/11 04:29:57;;;;;;;15.90;4.78;;;15.60;91.40;;;;;;4986313;28;20445;-59
2023/05/11 04:32:23;;;;;;;14.20;4.15;;;15.60;91.40;;;;;;4986265;28;20046;-59
2023/05/11 04:34:49;;;;;;;19.98;4.28;;;15.50;91.40;;;;;;4985953;28;20037;-59
2023/05/11 04:37:14;;;;;;;18.35;4.75;;;15.50;91.40;;;;;;4986750;28;20035;-59
2023/05/11 04:39:40;;;;;;;18.60;3.88;;;15.50;91.40;;;;;;4985869;28;20091;-59
2023/05/11 04:42:05;;;;;;;27.48;4.93;;;15.50;91.40;;;;;;4987118;28;20130;-58
2023/05/11 04:44:31;;;;;;;16.17;4.05;;;15.50;91.40;;;;;;4987048;28;20214;-58
2023/05/11 04:46:56;;;;;;;20.95;4.75;;;15.50;91.40;;;;;;4986281;28;20106;-59
2023/05/11 04:49:22;;;;;;;19.45;4.28;;;15.50;91.40;;;;;;4986973;28;20039;-60
2023/05/11 04:51:47;;;;;;;14.43;3.42;;;15.50;91.40;;;;;;4986533;28;20030;-59
2023/05/11 04:54:13;;;;;;;17.83;4.22;;;15.50;91.50;;;;;;4985829;28;20042;-59
2023/05/11 04:56:39;;;;;;;10.18;4.03;;;15.50;91.50;;;;;;4987299;28;20037;-59
2023/05/11 04:59:05;;;;;;;17.13;4.20;;;15.50;91.50;;;;;;4986813;28;20031;-59
2023/05/11 05:01:31;;;;;;;11.95;3.28;;;15.50;91.60;;;;;;4985706;28;20111;-59
2023/05/11 05:03:56;;;;;;;8.77;3.00;;;15.50;91.60;;;;;;4985813;28;20122;-59
2023/05/11 05:06:22;;;;;;;11.15;3.72;;;15.50;91.70;;;;;;4985273;28;20035;-59
2023/05/11 05:08:47;;;;;;;14.73;3.80;;;15.50;92.10;;;;;;4987070;28;20772;-59
2023/05/11 05:11:13;;;;;;;14.18;3.50;;;15.50;91.80;;;;;;4986197;28;20077;-59
2023/05/11 05:13:39;;;;;;;21.38;4.13;;;15.50;91.80;;;;;;4985517;28;20022;-59
2023/05/11 05:16:04;;;;;;;16.00;3.45;;;15.50;91.80;;;;;;4985348;28;20053;-59
2023/05/11 05:18:30;;;;;;;12.88;3.08;;;15.50;91.70;;;;;;4984412;28;20042;-59
2023/05/11 05:20:55;;;;;;;15.95;3.60;;;15.50;91.70;;;;;;4984997;28;20047;-59
2023/05/11 05:23:21;;;;;;;14.80;2.92;;;15.50;91.70;;;;;;4985088;28;20082;-59
2023/05/11 05:25:47;;;;;;;9.65;3.50;;;15.50;91.70;;;;;;4984479;28;20365;-59
2023/05/11 05:28:12;;;;;;;9.05;3.00;;;15.40;91.70;;;;;;4984858;28;20567;-59
2023/05/11 05:30:38;;;;;;;19.27;3.88;;;15.40;91.70;;;;;;4985717;28;20460;-60
2023/05/11 05:33:03;;;;;;;12.00;2.60;;;15.40;91.70;;;;;;4984699;28;20022;-59
2023/05/11 05:35:29;;;;;;;7.00;2.58;;;15.40;91.70;;;;;;4986228;28;20041;-59
2023/05/11 05:37:54;;;;;;;10.07;2.45;;;15.40;91.70;;;;;;4986452;28;20031;-59
2023/05/11 05:40:20;;;;;;;12.05;3.00;;;15.40;91.70;;;;;;4982889;28;20516;-59
2023/05/11 05:42:45;;;;;;;13.05;3.10;;;15.40;91.70;;;;;;4986713;28;20069;-59
2023/05/11 05:45:11;;;;;;;12.60;2.90;;;15.40;91.70;;;;;;5017132;28;20443;-59
2023/05/11 05:47:36;;;;;;;6.68;2.78;;;15.40;91.70;;;;;;4985501;28;20448;-59
2023/05/11 05:50:02;;;;;;;12.02;2.70;;;15.40;91.60;;;;;;4983867;28;20027;-59
2023/05/11 05:52:28;;;;;;;11.82;2.60;;;15.40;91.60;;;;;;4985621;28;20042;-59
2023/05/11 05:54:53;;;;;;;8.30;2.63;;;15.40;91.60;;;;;;4984483;28;20106;-59
2023/05/11 05:57:19;;;;;;;9.35;2.60;;;15.40;91.60;;;;;;4984811;28;20039;-59
2023/05/11 05:59:44;;;;;;;8.75;2.40;;;15.40;91.60;;;;;;4984123;28;20074;-58
2023/05/11 06:02:12;;;;;;;8.95;2.47;;;15.40;91.60;;;;;;4984548;28;20023;-59
2023/05/11 06:04:37;;;;;;;8.40;2.58;;;15.40;91.60;;;;;;4998291;28;20380;-59
2023/05/11 06:07:03;;;;;;;6.32;1.95;;;15.30;91.50;;;;;;4984343;28;20034;-59
2023/05/11 06:09:28;;;;;;;6.57;1.90;;;15.40;91.60;;;;;;4983595;28;20031;-59
2023/05/11 06:11:54;;;;;;;8.43;2.22;;;15.30;91.50;;;;;;4980464;28;20390;-59
2023/05/11 06:14:21;;;;;;;15.57;1.98;;;15.30;91.60;;;;;;4986005;28;20041;-57
2023/05/11 06:16:47;;;;;;;9.85;2.17;;;15.30;91.60;;;;;;4984185;28;20031;-59
2023/05/11 06:19:12;;;;;;;10.98;2.25;;;15.30;91.70;;;;;;4979299;28;20039;-60
2023/05/11 06:21:40;;;;;;;7.82;2.00;;;15.30;91.70;;;;;;4964617;28;20027;-59
2023/05/11 06:24:06;;;;;;;8.93;1.80;;;15.30;91.70;;;;;;4982639;28;20023;-59
2023/05/11 06:26:31;;;;;;;7.43;2.05;;;15.30;91.80;;;;;;4980983;28;20022;-59
2023/05/11 06:28:57;;;;;;;12.07;2.03;;;15.30;91.80;;;;;;4982129;28;20066;-59
2023/05/11 06:31:23;;;;;;;8.05;2.40;;;15.20;91.80;;;;;;5012494;28;20042;-59
2023/05/11 06:33:49;;;;;;;8.57;2.40;;;15.30;91.80;;;;;;4978073;28;20039;-59
2023/05/11 06:36:14;;;;;;;6.90;2.33;;;15.30;91.90;;;;;;4982765;28;20026;-60
2023/05/11 06:38:40;;;;;;;13.55;2.20;;;15.30;91.90;;;;;;4992920;28;20106;-59
2023/05/11 06:41:06;;;;;;;4.70;1.65;;;15.30;91.80;;;;;;4982422;28;20026;-59
2023/05/11 06:43:32;;;;;;;3.67;1.52;;;15.30;91.80;;;;;;4981875;28;20035;-60
2023/05/11 06:45:57;;;;;;;5.35;1.73;;;15.30;91.80;;;;;;4984112;28;20391;-59
2023/05/11 06:48:24;;;;;;;4.55;1.90;;;15.30;91.80;;;;;;4981713;28;20385;-59
2023/05/11 06:50:50;;;;;;;4.55;1.60;;;15.30;91.80;;;;;;4978477;28;20046;-59
2023/05/11 06:53:16;;;;;;;5.40;1.83;;;15.30;91.80;;;;;;4969613;28;20031;-60
2023/05/11 06:55:42;;;;;;;5.55;1.90;;;15.30;91.80;;;;;;4981270;28;20039;-60
2023/05/11 06:58:08;;;;;;;5.55;2.00;;;15.30;91.80;;;;;;4996592;28;20030;-59
2023/05/11 07:00:33;;;;;;;6.30;2.00;;;15.30;91.80;;;;;;4992143;28;20042;-59
2023/05/11 07:02:59;;;;;;;5.85;2.00;;;15.30;91.80;;;;;;4981288;28;20455;-59
2023/05/11 07:05:24;;;;;;;6.93;1.95;;;15.40;91.80;;;;;;4979967;28;20050;-59
2023/05/11 07:07:50;;;;;;;3.53;1.77;;;15.40;91.80;;;;;;4983349;28;20444;-59
2023/05/11 07:10:16;;;;;;;11.15;2.17;;;15.40;91.80;;;;;;4965890;28;20038;-59
2023/05/11 07:12:41;;;;;;;9.32;2.30;;;15.40;91.70;;;;;;4984320;28;20499;-60
2023/05/11 07:15:08;;;;;;;9.52;2.05;;;15.40;91.80;;;;;;4987435;28;20058;-59
2023/05/11 07:17:33;;;;;;;12.82;2.70;;;15.50;91.70;;;;;;4988782;28;20038;-59
2023/05/11 07:19:59;;;;;;;11.27;2.40;;;15.40;91.70;;;;;;4984275;28;20027;-60
2023/05/11 07:22:24;;;;;;;9.98;3.00;;;15.50;91.70;;;;;;4986401;28;20398;-59
2023/05/11 07:24:50;;;;;;;105.85;12.00;;;15.50;91.70;;;;;;4984022;28;20035;-59
2023/05/11 07:27:15;;;;;;;44.97;6.07;;;15.50;91.80;;;;;;4986552;28;20031;-59
2023/05/11 07:29:41;;;;;;;34.03;5.10;;;15.60;91.80;;;;;;4983156;28;20090;-59
2023/05/11 07:32:06;;;;;;;96.95;10.05;;;15.60;91.80;;;;;;4983652;28;20046;-59
2023/05/11 07:34:32;;;;;;;61.78;8.10;;;15.60;92.10;;;;;;4976013;28;20115;-59
2023/05/11 07:36:57;;;;;;;74.47;7.10;;;15.60;91.80;;;;;;4973106;28;20059;-60
2023/05/11 07:39:23;;;;;;;38.90;5.43;;;15.70;91.80;;;;;;4979900;28;20035;-59
2023/05/11 07:41:48;;;;;;;94.95;9.98;;;15.70;91.70;;;;;;4986147;28;20399;-59
2023/05/11 07:44:14;;;;;;;76.53;8.05;;;15.70;91.80;;;;;;4980857;28;21101;-59
2023/05/11 07:46:40;;;;;;;50.97;6.70;;;15.70;91.90;;;;;;4985436;28;20038;-59
2023/05/11 07:49:05;;;;;;;45.45;6.03;;;15.80;91.90;;;;;;4983356;28;20035;-59
2023/05/11 07:51:31;;;;;;;37.88;5.72;;;15.80;91.80;;;;;;4986080;28;20413;-59
2023/05/11 07:53:56;;;;;;;27.08;5.03;;;15.70;91.70;;;;;;4987203;28;20105;-59
2023/05/11 07:56:22;;;;;;;32.13;4.85;;;15.70;91.70;;;;;;4985152;28;20038;-59
2023/05/11 07:58:47;;;;;;;29.02;4.38;;;15.90;91.80;;;;;;4982615;28;20039;-59
2023/05/11 08:01:13;;;;;;;20.25;3.50;;;15.80;91.70;;;;;;4982441;28;20030;-59
2023/05/11 08:03:38;;;;;;;32.88;4.20;;;15.70;91.60;;;;;;4963543;28;20030;-60
2023/05/11 08:06:04;;;;;;;25.02;4.53;;;15.80;91.60;;;;;;4982411;28;20035;-59
2023/05/11 08:08:30;;;;;;;36.85;4.47;;;16.00;91.80;;;;;;4978719;28;20026;-59
2023/05/11 08:10:55;;;;;;;34.80;4.85;;;15.70;91.70;;;;;;4974479;28;20164;-60
2023/05/11 08:13:21;;;;;;;29.95;4.78;;;15.70;91.70;;;;;;4981586;28;20038;-59
2023/05/11 08:15:47;;;;;;;28.85;4.00;;;15.70;91.70;;;;;;4979332;28;20094;-60
2023/05/11 08:18:12;;;;;;;35.97;4.47;;;15.70;91.70;;;;;;4984246;28;20019;-60
2023/05/11 08:20:40;;;;;;;33.85;4.72;;;15.80;91.80;;;;;;4979144;28;20053;-59
2023/05/11 08:23:06;;;;;;;32.33;4.53;;;15.80;91.70;;;;;;4975992;28;20035;-60
2023/05/11 08:25:33;;;;;;;28.25;4.35;;;15.80;91.80;;;;;;4980377;28;20315;-59
2023/05/11 08:27:59;;;;;;;38.60;6.00;;;15.80;91.80;;;;;;4976555;28;20031;-59
2023/05/11 08:30:25;;;;;;;38.05;5.60;;;15.90;91.90;;;;;;4980149;28;20074;-59
2023/05/11 08:32:50;;;;;;;27.40;5.30;;;15.90;91.80;;;;;;4979184;28;20606;-59
2023/05/11 08:35:16;;;;;;;34.97;5.18;;;15.90;91.70;;;;;;4982948;28;20027;-60
2023/05/11 08:37:41;;;;;;;32.55;3.83;;;16.00;91.80;;;;;;4979499;28;20050;-59
2023/05/11 08:40:09;;;;;;;26.52;4.20;;;16.00;91.70;;;;;;4981864;28;20364;-60
2023/05/11 08:42:35;;;;;;;41.25;5.68;;;16.00;91.60;;;;;;4982527;28;20031;-60
2023/05/11 08:45:02;;;;;;;64.32;6.60;;;16.00;91.60;;;;;;4980212;28;20039;-60
2023/05/11 08:47:28;;;;;;;48.35;6.03;;;16.00;91.60;;;;;;4994669;28;20078;-60
2023/05/11 08:49:53;;;;;;;63.22;7.63;;;16.10;91.60;;;;;;4975015;28;20027;-60
2023/05/11 08:52:19;;;;;;;30.80;5.43;;;16.10;91.70;;;;;;4979137;28;20027;-60
2023/05/11 08:54:45;;;;;;;31.90;5.88;;;16.20;91.60;;;;;;4975575;28;20036;-60
2023/05/11 08:57:12;;;;;;;34.50;6.03;;;16.20;91.40;;;;;;4973071;28;20476;-60
2023/05/11 08:59:37;;;;;;;50.38;7.15;;;16.20;91.30;;;;;;4992996;28;20030;-59
2023/05/11 09:02:03;;;;;;;34.30;5.63;;;16.30;91.30;;;;;;4994483;28;20166;-60
2023/05/11 09:04:29;;;;;;;27.48;4.75;;;16.30;91.30;;;;;;4977741;28;20035;-60
2023/05/11 09:06:54;;;;;;;37.60;5.20;;;16.40;91.30;;;;;;4994156;28;20066;-59
2023/05/11 09:09:20;;;;;;;45.60;6.35;;;16.40;91.10;;;;;;5016248;28;20023;-60
2023/05/11 09:11:46;;;;;;;31.15;5.88;;;16.40;91.10;;;;;;4986438;28;20031;-60
2023/05/11 09:14:12;;;;;;;30.50;5.22;;;16.40;91.10;;;;;;4987355;28;20031;-60
2023/05/11 09:16:37;;;;;;;128.48;13.23;;;16.50;91.10;;;;;;4988240;28;20035;-60
2023/05/11 09:19:04;;;;;;;69.65;8.50;;;16.50;91.00;;;;;;4982278;28;20030;-59
2023/05/11 09:21:30;;;;;;;45.53;6.03;;;16.50;91.20;;;;;;4983987;28;20095;-59
2023/05/11 09:23:58;;;;;;;49.45;7.38;;;16.60;90.90;;;;;;4985275;28;20035;-60
2023/05/11 09:26:24;;;;;;;46.08;6.95;;;16.60;90.80;;;;;;4983383;28;20041;-60
2023/05/11 09:28:50;;;;;;;54.72;7.60;;;16.70;90.70;;;;;;4950278;28;20222;-59
2023/05/11 09:31:35;;;;;;;52.50;7.18;;;16.70;90.70;;;;;;4988658;28;20065;-59
2023/05/11 09:34:17;;;;;;;39.90;6.73;;;16.70;90.70;;;;;;5004869;28;20169;-59
2023/05/11 09:36:51;;;;;;;29.60;6.22;;;16.70;90.70;;;;;;4966481;28;20076;-58
2023/05/11 09:39:18;;;;;;;47.10;6.30;;;16.80;90.60;;;;;;4979696;28;20081;-60
2023/05/11 09:41:44;;;;;;;58.55;8.05;;;16.80;90.50;;;;;;4983335;28;20090;-59
2023/05/11 09:44:13;;;;;;;56.30;6.78;;;16.80;90.50;;;;;;4992927;28;20038;-59
2023/05/11 09:46:40;;;;;;;51.75;7.38;;;16.80;90.50;;;;;;5005669;28;20026;-59
2023/05/11 09:49:06;;;;;;;39.40;7.22;;;16.90;90.50;;;;;;4996069;28;20041;-59
2023/05/11 09:51:33;;;;;;;46.35;6.40;;;16.90;90.30;;;;;;5002847;28;20049;-58
2023/05/11 09:53:59;;;;;;;51.30;7.13;;;16.90;90.20;;;;;;5005664;28;20064;-59
2023/05/11 09:56:47;;;;;;;48.67;7.40;;;17.00;90.20;;;;;;5000157;28;20092;-59
2023/05/11 09:59:35;;;;;;;42.00;6.55;;;17.00;90.00;;;;;;4980733;28;20045;-59
2023/05/11 10:02:22;;;;;;;48.65;6.55;;;17.10;90.00;;;;;;4987541;28;20030;-59
2023/05/11 10:04:58;;;;;;;46.13;7.07;;;17.10;89.90;;;;;;5005400;28;20034;-59
2023/05/11 10:07:23;;;;;;;;;;;17.20;89.70;;;;;;4994576;28;20132;-60
2023/05/11 10:09:51;;;;;;;61.55;7.78;;;17.20;89.60;;;;;;4997483;28;19922;-59
2023/05/11 10:12:16;;;;;;;53.88;8.20;;;17.20;89.40;;;;;;5001283;28;20145;-59
2023/05/11 10:14:42;;;;;;;64.38;7.32;;;17.20;89.30;;;;;;4994662;28;20554;-59
2023/05/11 10:17:08;;;;;;;61.85;7.00;;;17.30;89.20;;;;;;4998899;28;20122;-59
2023/05/11 10:19:33;;;;;;;34.47;6.35;;;17.30;89.00;;;;;;4980069;28;20140;-60
2023/05/11 10:21:59;;;;;;;29.55;5.70;;;17.30;88.90;;;;;;4995546;28;20035;-59
2023/05/11 10:24:25;;;;;;;37.42;6.03;;;17.30;88.70;;;;;;4986313;28;20031;-59
2023/05/11 10:26:51;;;;;;;48.80;6.72;;;17.30;88.70;;;;;;4983993;28;20049;-59
2023/05/11 10:29:18;;;;;;;53.58;6.32;;;17.30;88.40;;;;;;4974034;28;20061;-60
2023/05/11 10:31:44;;;;;;;43.83;6.13;;;17.30;88.30;;;;;;5012888;28;20026;-59
2023/05/11 10:34:10;;;;;;;44.63;6.57;;;17.30;88.10;;;;;;4982640;28;20062;-59
2023/05/11 10:36:35;;;;;;;31.80;5.38;;;17.30;88.10;;;;;;4998559;28;20034;-59
2023/05/11 10:39:01;;;;;;;28.95;5.40;;;17.40;87.80;;;;;;4988920;28;20038;-59
2023/05/11 10:41:33;;;;;;;39.45;5.10;;;17.30;87.70;;;;;;4985712;28;20070;-59
2023/05/11 10:44:06;;;;;;;29.00;4.75;;;17.30;88.20;;;;;;4984674;28;20042;-60
2023/05/11 10:46:53;;;;;;;25.35;3.85;;;17.30;87.70;;;;;;5000009;28;20046;-59
2023/05/11 10:49:30;;;;;;;27.65;4.65;;;17.30;87.70;;;;;;5017090;28;20129;-60
2023/05/11 10:52:11;;;;;;;23.42;3.90;;;17.30;87.30;;;;;;4989631;28;20039;-60
2023/05/11 10:54:46;;;;;;;33.15;4.68;;;17.30;86.80;;;;;;4996276;28;20039;-60
2023/05/11 10:57:12;;;;;;;33.47;5.13;;;17.30;86.70;;;;;;4986472;28;20034;-60
2023/05/11 11:00:29;;;;;;;32.83;5.80;;;17.30;86.50;;;;;;5004559;28;20077;-60
2023/05/11 11:02:55;;;;;;;;;;;17.30;86.50;;;;;;4999024;28;20138;-59
2023/05/11 11:05:34;;;;;;;45.42;5.93;;;17.30;86.70;;;;;;5001003;28;19978;-59
2023/05/11 11:08:02;;;;;;;40.55;4.97;;;17.30;86.80;;;;;;4988509;28;20033;-59
2023/05/11 11:10:39;;;;;;;70.85;7.30;;;17.20;86.80;;;;;;4996239;28;20359;-59
2023/05/11 11:13:09;;;;;;;34.25;5.35;;;17.20;86.90;;;;;;4982214;28;20031;-60
2023/05/11 11:15:53;;;;;;;43.80;5.70;;;17.20;87.10;;;;;;4981297;28;20034;-60
2023/05/11 11:18:28;;;;;;;46.53;6.60;;;17.20;87.00;;;;;;4982788;28;20041;-59
2023/05/11 11:20:55;;;;;;;55.65;7.07;;;17.20;87.00;;;;;;4983812;28;20042;-60
2023/05/11 11:23:41;;;;;;;66.70;8.27;;;17.20;87.10;;;;;;4994556;28;20027;-60
2023/05/11 11:26:08;;;;;;;65.82;8.90;;;17.20;87.10;;;;;;4992568;28;20042;-60
2023/05/11 11:28:53;;;;;;;46.53;6.80;;;17.20;87.10;;;;;;4988196;28;20031;-59
2023/05/11 11:31:28;;;;;;;59.85;8.43;;;17.20;87.30;;;;;;4986736;28;20139;-59
2023/05/11 11:33:57;;;;;;;58.35;8.15;;;17.20;87.40;;;;;;4983364;28;20047;-59
2023/05/11 11:37:00;;;;;;;42.38;6.68;;;17.10;87.20;;;;;;4972803;28;20184;-59
2023/05/11 11:39:27;;;;;;;54.58;7.68;;;17.10;87.20;;;;;;4951392;28;20111;-58
2023/05/11 11:42:06;;;;;;;45.83;6.63;;;17.10;87.50;;;;;;4980651;28;20039;-60
2023/05/11 11:44:36;;;;;;;51.05;6.53;;;17.10;87.70;;;;;;4993695;28;20062;-60
2023/05/11 11:47:20;;;;;;;43.75;7.40;;;17.10;87.90;;;;;;4992215;28;20448;-59
2023/05/11 11:49:54;;;;;;;60.67;8.07;;;17.00;88.00;;;;;;4984241;28;20049;-60
2023/05/11 11:52:26;;;;;;;38.43;5.40;;;17.00;88.00;;;;;;4993802;28;20058;-60
2023/05/11 11:54:52;;;;;;;42.63;6.40;;;17.00;87.90;;;;;;5001621;28;20107;-54
2023/05/11 11:57:33;;;;;;;43.45;5.35;;;17.00;87.90;;;;;;4986126;28;20062;-54
2023/05/11 12:00:09;;;;;;;25.58;4.88;;;17.00;88.00;;;;;;4991530;28;20042;-53
2023/05/11 12:02:38;;;;;;;;;;;17.00;87.90;;;;;;4999271;28;20101;-54
2023/05/11 12:05:12;;;;;;;41.13;5.25;;;17.00;88.00;;;;;;4987099;28;19922;-54
2023/05/11 12:07:43;;;;;;;36.70;4.97;;;17.00;88.10;;;;;;4985207;28;20046;-54
2023/05/11 12:10:11;;;;;;;42.85;4.90;;;16.90;88.20;;;;;;5011668;28;20470;-54
2023/05/11 12:12:37;;;;;;;38.50;4.93;;;17.00;88.20;;;;;;4957781;28;20046;-54
2023/05/11 12:15:05;;;;;;;40.67;5.72;;;16.90;88.20;;;;;;4986393;28;20091;-54
2023/05/11 12:17:33;;;;;;;24.77;4.43;;;16.90;88.20;;;;;;4988148;28;20034;-53
2023/05/11 12:20:16;;;;;;;37.83;5.07;;;16.90;88.10;;;;;;4980388;28;20035;-53
2023/05/11 12:22:43;;;;;;;47.92;6.55;;;16.90;88.20;;;;;;4984307;28;20093;-53
2023/05/11 12:25:10;;;;;;;44.75;5.47;;;16.90;88.20;;;;;;4983981;28;20046;-54
2023/05/11 12:27:46;;;;;;;39.17;5.60;;;16.90;88.30;;;;;;4983945;28;20022;-53
2023/05/11 12:30:22;;;;;;;42.03;5.07;;;16.90;88.30;;;;;;4976742;28;20039;-55
2023/05/11 12:32:47;;;;;;;;;;;16.90;88.40;;;;;;4986111;28;20046;-53
2023/05/11 12:35:15;;;;;;;41.72;4.63;;;16.90;88.30;;;;;;4985241;28;19929;-54
2023/05/11 12:37:42;;;;;;;31.58;4.63;;;16.90;88.30;;;;;;4980426;28;20121;-53
2023/05/11 12:40:10;;;;;;;32.13;4.60;;;16.90;88.20;;;;;;4973767;28;20065;-54
2023/05/11 12:42:35;;;;;;;31.60;4.72;;;16.90;88.10;;;;;;4983808;28;20058;-53
2023/05/11 12:45:02;;;;;;;27.10;5.43;;;16.90;88.30;;;;;;4985438;28;20114;-53